ADDS METAR Data INFO
IDs: Format: Raw Decoded Include TAF

Data at: 0920 UTC 17 Oct 2017

KCVO 170913Z AUTO 00000KT 3/4SM BR OVC001 05/04 A3010 RMK AO2 RVRNO
KCVO 170856Z AUTO 00000KT 1/4SM FG OVC001 05/05 A3010 RMK AO2 SLP195 T00500050 58004 RVRNO
KCVO 170805Z AUTO 00000KT 1/4SM FG OVC001 06/05 A3011 RMK AO2 RVRNO
KCVO 170756Z AUTO 00000KT 1/2SM FG OVC001 06/05 A3011 RMK AO2 SLP197 T00560050 401890017 RVRNO
KCVO 170707Z AUTO 22003KT 3/4SM BR VV001 06/05 A3011 RMK AO2 RVRNO
KCVO 170658Z AUTO 22003KT 1 1/4SM BR FEW002 05/05 A3011 RMK AO2
KCVO 170656Z AUTO 22003KT 3/4SM BR VV002 06/06 A3011 RMK AO2 SLP199 T00560056 RVRNO
KCVO 170642Z AUTO 20003KT 2 1/2SM BR SCT002 06/06 A3012 RMK AO2 VIS 1/2V5
KCVO 170556Z AUTO 00000KT 3SM BR CLR 07/07 A3012 RMK AO2 SLP203 T00720067 10189 20072 56006
KCVO 170456Z AUTO 29005KT 10SM CLR 11/09 A3013 RMK AO2 SLP203 T01060094
KCVO 170356Z AUTO 29005KT 10SM CLR 11/09 A3014 RMK AO2 SLP207 T01060094
KCVO 170256Z AUTO 00000KT 10SM CLR 10/09 A3014 RMK AO2 SLP209 T01000089 56008
KCVO 170156Z AUTO 30003KT 10SM CLR 12/09 A3014 RMK AO2 SLP209 T01220094
KCVO 170056Z AUTO 10003KT 10SM CLR 17/10 A3015 RMK AO2 SLP211 T01720100
KCVO 162356Z AUTO 06003KT 10SM CLR 18/09 A3017 RMK AO2 SLP216 T01830094 10189 20067 57017
KCVO 162256Z AUTO 00000KT 10SM CLR 18/09 A3019 RMK AO2 SLP224 T01780094
KCVO 162156Z AUTO 00000KT 9SM CLR 17/09 A3019 RMK AO2 SLP226 T01720089
KCVO 162056Z AUTO 08003KT 10SM CLR 15/08 A3022 RMK AO2 SLP234 T01500083 58020
KCVO 161956Z AUTO 02003KT 4SM BR FEW003 12/09 A3024 RMK AO2 SLP242 T01170094
KCVO 161948Z AUTO VRB03KT 3SM BR FEW003 11/09 A3024 RMK AO2
KCVO 161938Z AUTO 02003KT 2 1/2SM BR SCT001 10/09 A3025 RMK AO2 VIS 2V4
KCVO 161926Z AUTO 00000KT 2 1/2SM BR BKN001 09/08 A3026 RMK AO2
KCVO 161919Z AUTO 00000KT 1 3/4SM BR OVC001 09/08 A3026 RMK AO2
KCVO 161912Z AUTO 00000KT 1SM BR OVC001 08/08 A3026 RMK AO2 RVRNO
KCVO 161856Z AUTO 02003KT 1/2SM FG OVC001 08/08 A3027 RMK AO2 SLP251 T00830078 RVRNO
KCVO 161756Z AUTO 00000KT M1/4SM FG OVC001 06/06 A3028 RMK AO2 SLP255 T00610061 10061 20017 50004 RVRNO
KCVO 161656Z AUTO 08003KT M1/4SM FG OVC001 06/06 A3029 RMK AO2 SLP258 T00560056 RVRNO
KCVO 161556Z AUTO 00000KT 1/4SM FG OVC001 04/04 A3028 RMK AO2 SLP257 T00440044 RVRNO
KCVO 161456Z AUTO 30003KT M1/4SM FG OVC001 03/03 A3027 RMK AO2 SLP251 T00330033 53004 RVRNO
KCVO 161429Z AUTO 00000KT M1/4SM FG OVC001 03/03 A3026 RMK AO2 RVRNO
KCVO 161356Z AUTO 00000KT 1/4SM FG OVC003 03/03 A3026 RMK AO2 SLP250 T00330028 RVRNO
KCVO 161343Z AUTO 00000KT 1/4SM FG OVC003 03/03 A3026 RMK AO2 RVRNO
KCVO 161336Z AUTO 00000KT 3/4SM BR OVC003 03/03 A3026 RMK AO2 RVRNO
KCVO 161331Z AUTO 00000KT 1 3/4SM BR OVC003 03/03 A3025 RMK AO2
KCVO 161328Z AUTO 00000KT 3SM BR OVC003 03/03 A3025 RMK AO2
KCVO 161317Z AUTO 00000KT 2SM BR OVC003 03/03 A3025 RMK AO2 VIS 1 1/4V5
KCVO 161309Z AUTO 00000KT 1SM BR OVC003 03/03 A3025 RMK AO2 VIS 1/2V2 1/2 RVRNO
KCVO 161256Z AUTO 00000KT 1/2SM FG OVC005 03/03 A3025 RMK AO2 SLP245 T00280028 RVRNO
KCVO 161243Z AUTO 00000KT 1/4SM FG OVC003 03/03 A3025 RMK AO2 CIG 001V005 RVRNO
KCVO 161232Z AUTO 00000KT 1/2SM FG OVC003 03/02 A3025 RMK AO2 CIG 001V005 RVRNO
KCVO 161230Z AUTO 00000KT 3/4SM BR BKN001 OVC005 03/02 A3025 RMK AO2 CIG 001V004 RVRNO
KCVO 161217Z AUTO 00000KT 1 1/4SM BR OVC001 02/02 A3025 RMK AO2 CIG 001V004 FZRANO
KCVO 161215Z AUTO 00000KT 3/4SM BR OVC003 02/02 A3025 RMK AO2 CIG 001V004 FZRANO RVRNO
KCVO 161206Z AUTO 00000KT 1/4SM FG OVC003 02/02 A3025 RMK AO2 CIG 001V004 FZRANO RVRNO
KCVO 161156Z AUTO 00000KT 3/4SM BR OVC003 02/02 A3025 RMK AO2 CIG 001V004 SLP246 T00220017 10067 20022 55000 FZRANO RVRNO
KCVO 161149Z AUTO 00000KT 3/4SM BR OVC001 02/02 A3025 RMK AO2 CIG 001V004 FZRANO RVRNO
KCVO 161115Z AUTO 00000KT 1/2SM FG BKN001 02/02 A3025 RMK AO2 FZRANO RVRNO
KCVO 161111Z AUTO 00000KT 1SM BR BKN001 02/02 A3025 RMK AO2 VIS 1/2V5 FZRANO RVRNO
KCVO 161104Z AUTO 00000KT 2SM BR BKN001 02/02 A3025 RMK AO2 VIS 3/4V5 FZRANO
KCVO 161100Z AUTO 00000KT 1 1/4SM BR SCT001 03/02 A3025 RMK AO2 VIS 3/4V5
KCVO 161056Z AUTO 00000KT 1SM BR VV002 03/03 A3025 RMK AO2 SLP245 T00280028 RVRNO
KCVO 161047Z AUTO 17003KT 1SM BR VV002 03/02 A3025 RMK AO2 RVRNO
KCVO 161045Z AUTO 16004KT 1 1/2SM BR CLR 03/02 A3025 RMK AO2
KCVO 160956Z AUTO 00000KT 10SM CLR 03/03 A3025 RMK AO2 SLP247 T00330033
KCVO 160947Z AUTO 00000KT 9SM CLR 03/03 A3026 RMK AO2
KCVO 160939Z AUTO 00000KT 2SM BR CLR 03/03 A3025 RMK AO2
KCVO 160915Z AUTO 00000KT 1SM BR CLR 03/03 A3026 RMK AO2 VIS 1/2V5 RVRNO
KCVO 160856Z AUTO 00000KT 5SM BR CLR 03/03 A3026 RMK AO2 SLP246 T00330028 57001
KCVO 160852Z AUTO 00000KT 2 1/2SM BR CLR 03/03 A3026 RMK AO2
KCVO 160847Z AUTO 00000KT 1SM BR CLR 03/03 A3026 RMK AO2 VIS 1/2V5 RVRNO
KCVO 160839Z AUTO 00000KT 1/2SM FG CLR 03/02 A3026 RMK AO2 RVRNO
KCVO 160828Z AUTO 00000KT 3/4SM BR CLR 03/03 A3025 RMK AO2 RVRNO
KCVO 160823Z AUTO 00000KT 1 1/2SM BR CLR 03/03 A3025 RMK AO2 VIS 1/2V5
KCVO 160756Z AUTO 00000KT 9SM CLR 06/05 A3026 RMK AO2 SLP247 T00560050 401780006
KCVO 160751Z AUTO 00000KT 3SM BR CLR 05/04 A3026 RMK AO2 401780006
KCVO 160743Z AUTO 00000KT 1 3/4SM BR CLR 04/04 A3026 RMK AO2
KCVO 160656Z AUTO 19003KT 10SM CLR 05/04 A3026 RMK AO2 SLP248 T00500044
KCVO 160556Z AUTO 28003KT 10SM CLR 06/06 A3026 RMK AO2 SLP249 T00610056 10172 20056 51009
KCVO 160456Z AUTO 24003KT 10SM CLR 07/06 A3025 RMK AO2 SLP247 T00670061
KCVO 160356Z AUTO 28003KT 10SM CLR 08/07 A3024 RMK AO2 SLP243 T00780072
KCVO 160256Z AUTO 29004KT 10SM CLR 09/07 A3023 RMK AO2 SLP240 T00890072 53005
KCVO 160156Z AUTO 00000KT 10SM CLR 11/08 A3022 RMK AO2 SLP237 T01060078
KCVO 160056Z AUTO 00000KT 10SM CLR 16/08 A3021 RMK AO2 SLP233 T01610078
KCVO 152356Z AUTO 11004KT 10SM CLR 17/07 A3022 RMK AO2 SLP234 T01670067 10178 20100 56012
KCVO 152256Z AUTO VRB04KT 10SM CLR 17/07 A3023 RMK AO2 SLP238 T01720067
KCVO 152247Z AUTO 00000KT 3SM HZ CLR 17/07 A3023 RMK AO2
KCVO 152237Z AUTO 00000KT 1 3/4SM HZ CLR 17/06 A3023 RMK AO2 VIS 1/2V5
KCVO 152156Z AUTO 09004KT 10SM CLR 16/07 A3023 RMK AO2 SLP240 T01610067